sensor_id;sensor_type;location;lat;lon;timestamp;temperature;humidity
83770;DHT22;73763;48.936;9.300;2023-12-20T00:00:55;5.40;92.70
83770;DHT22;73763;48.936;9.300;2023-12-20T00:03:20;5.50;92.70
83770;DHT22;73763;48.936;9.300;2023-12-20T00:05:47;5.40;93.00
83770;DHT22;73763;48.936;9.300;2023-12-20T00:08:12;5.40;92.90
83770;DHT22;73763;48.936;9.300;2023-12-20T00:10:38;5.40;93.10
83770;DHT22;73763;48.936;9.300;2023-12-20T00:13:04;5.50;93.20
83770;DHT22;73763;48.936;9.300;2023-12-20T00:15:29;5.50;93.50
83770;DHT22;73763;48.936;9.300;2023-12-20T00:17:55;5.40;93.70
83770;DHT22;73763;48.936;9.300;2023-12-20T00:20:20;5.30;94.00
83770;DHT22;73763;48.936;9.300;2023-12-20T00:22:45;5.30;94.30
83770;DHT22;73763;48.936;9.300;2023-12-20T00:25:11;5.30;94.40
83770;DHT22;73763;48.936;9.300;2023-12-20T00:27:37;5.30;94.30
83770;DHT22;73763;48.936;9.300;2023-12-20T00:30:02;5.30;94.90
83770;DHT22;73763;48.936;9.300;2023-12-20T00:32:28;5.20;95.30
83770;DHT22;73763;48.936;9.300;2023-12-20T00:34:53;5.20;95.70
83770;DHT22;73763;48.936;9.300;2023-12-20T00:37:19;5.10;96.10
83770;DHT22;73763;48.936;9.300;2023-12-20T00:39:44;5.10;96.50
83770;DHT22;73763;48.936;9.300;2023-12-20T00:42:10;5.00;96.80
83770;DHT22;73763;48.936;9.300;2023-12-20T00:44:35;5.00;97.00
83770;DHT22;73763;48.936;9.300;2023-12-20T00:47:01;5.00;97.10
83770;DHT22;73763;48.936;9.300;2023-12-20T00:49:26;5.00;97.20
83770;DHT22;73763;48.936;9.300;2023-12-20T00:51:52;5.00;97.30
83770;DHT22;73763;48.936;9.300;2023-12-20T00:54:18;4.90;97.40
83770;DHT22;73763;48.936;9.300;2023-12-20T00:56:44;4.90;97.50
83770;DHT22;73763;48.936;9.300;2023-12-20T00:59:09;4.90;97.70
83770;DHT22;73763;48.936;9.300;2023-12-20T01:01:35;4.90;97.80
83770;DHT22;73763;48.936;9.300;2023-12-20T01:04:00;4.90;97.80
83770;DHT22;73763;48.936;9.300;2023-12-20T01:06:26;4.90;97.70
83770;DHT22;73763;48.936;9.300;2023-12-20T01:08:51;4.90;97.70
83770;DHT22;73763;48.936;9.300;2023-12-20T01:11:17;4.90;97.80
83770;DHT22;73763;48.936;9.300;2023-12-20T01:13:42;4.80;97.80
83770;DHT22;73763;48.936;9.300;2023-12-20T01:16:10;4.80;98.00
83770;DHT22;73763;48.936;9.300;2023-12-20T01:18:36;4.90;98.20
83770;DHT22;73763;48.936;9.300;2023-12-20T01:21:02;4.80;98.40
83770;DHT22;73763;48.936;9.300;2023-12-20T01:23:28;4.80;98.50
83770;DHT22;73763;48.936;9.300;2023-12-20T01:25:53;4.80;98.60
83770;DHT22;73763;48.936;9.300;2023-12-20T01:28:19;4.80;98.60
83770;DHT22;73763;48.936;9.300;2023-12-20T01:30:44;4.70;98.70
83770;DHT22;73763;48.936;9.300;2023-12-20T01:33:10;4.80;98.70
83770;DHT22;73763;48.936;9.300;2023-12-20T01:35:36;4.80;98.70
83770;DHT22;73763;48.936;9.300;2023-12-20T01:38:01;4.70;98.90
83770;DHT22;73763;48.936;9.300;2023-12-20T01:40:27;4.70;99.10
83770;DHT22;73763;48.936;9.300;2023-12-20T01:43:18;4.70;99.30
83770;DHT22;73763;48.936;9.300;2023-12-20T01:45:44;4.70;99.30
83770;DHT22;73763;48.936;9.300;2023-12-20T01:48:11;4.70;99.50
83770;DHT22;73763;48.936;9.300;2023-12-20T01:50:37;4.70;99.60
83770;DHT22;73763;48.936;9.300;2023-12-20T01:53:04;4.60;99.70
83770;DHT22;73763;48.936;9.300;2023-12-20T01:55:33;4.70;99.70
83770;DHT22;73763;48.936;9.300;2023-12-20T01:58:00;4.70;99.70
83770;DHT22;73763;48.936;9.300;2023-12-20T02:00:28;4.70;99.60
83770;DHT22;73763;48.936;9.300;2023-12-20T02:02:54;4.70;99.60
83770;DHT22;73763;48.936;9.300;2023-12-20T02:05:20;4.70;99.40
83770;DHT22;73763;48.936;9.300;2023-12-20T02:07:46;4.60;99.30
83770;DHT22;73763;48.936;9.300;2023-12-20T02:10:12;4.60;99.60
83770;DHT22;73763;48.936;9.300;2023-12-20T02:12:37;4.60;99.70
83770;DHT22;73763;48.936;9.300;2023-12-20T02:15:03;4.60;99.80
83770;DHT22;73763;48.936;9.300;2023-12-20T02:17:30;4.60;99.90
83770;DHT22;73763;48.936;9.300;2023-12-20T02:19:56;4.70;99.90
83770;DHT22;73763;48.936;9.300;2023-12-20T02:22:22;4.70;99.90
83770;DHT22;73763;48.936;9.300;2023-12-20T02:24:47;4.60;99.90
83770;DHT22;73763;48.936;9.300;2023-12-20T02:27:13;4.70;99.90
83770;DHT22;73763;48.936;9.300;2023-12-20T02:29:39;4.60;99.90
83770;DHT22;73763;48.936;9.300;2023-12-20T02:32:05;4.70;99.90
83770;DHT22;73763;48.936;9.300;2023-12-20T02:34:30;4.70;99.90
83770;DHT22;73763;48.936;9.300;2023-12-20T02:36:56;4.70;99.90
83770;DHT22;73763;48.936;9.300;2023-12-20T02:39:22;4.70;99.90
83770;DHT22;73763;48.936;9.300;2023-12-20T02:41:48;4.80;99.90
83770;DHT22;73763;48.936;9.300;2023-12-20T02:44:14;4.80;99.90
83770;DHT22;73763;48.936;9.300;2023-12-20T02:46:39;4.90;99.90
83770;DHT22;73763;48.936;9.300;2023-12-20T02:49:06;4.90;99.90
83770;DHT22;73763;48.936;9.300;2023-12-20T02:51:31;5.00;99.90
83770;DHT22;73763;48.936;9.300;2023-12-20T02:53:57;4.90;99.90
83770;DHT22;73763;48.936;9.300;2023-12-20T02:56:22;5.00;99.90
83770;DHT22;73763;48.936;9.300;2023-12-20T02:58:48;5.00;99.90
83770;DHT22;73763;48.936;9.300;2023-12-20T03:01:14;5.00;99.90
83770;DHT22;73763;48.936;9.300;2023-12-20T03:03:39;5.10;99.90
83770;DHT22;73763;48.936;9.300;2023-12-20T03:06:05;5.10;99.90
83770;DHT22;73763;48.936;9.300;2023-12-20T03:08:30;5.10;99.90
83770;DHT22;73763;48.936;9.300;2023-12-20T03:10:56;5.10;99.90
83770;DHT22;73763;48.936;9.300;2023-12-20T03:13:21;5.10;99.80
83770;DHT22;73763;48.936;9.300;2023-12-20T03:15:47;5.10;99.60
83770;DHT22;73763;48.936;9.300;2023-12-20T03:18:12;5.10;99.50
83770;DHT22;73763;48.936;9.300;2023-12-20T03:20:38;5.10;99.50
83770;DHT22;73763;48.936;9.300;2023-12-20T03:23:03;5.10;99.40
83770;DHT22;73763;48.936;9.300;2023-12-20T03:25:29;5.10;99.20
83770;DHT22;73763;48.936;9.300;2023-12-20T03:27:55;5.10;99.20
83770;DHT22;73763;48.936;9.300;2023-12-20T03:30:21;5.10;99.10
83770;DHT22;73763;48.936;9.300;2023-12-20T03:32:47;5.10;99.20
83770;DHT22;73763;48.936;9.300;2023-12-20T03:35:12;5.10;99.20
83770;DHT22;73763;48.936;9.300;2023-12-20T03:37:38;5.00;99.10
83770;DHT22;73763;48.936;9.300;2023-12-20T03:40:04;5.00;99.00
83770;DHT22;73763;48.936;9.300;2023-12-20T03:42:29;5.00;99.00
83770;DHT22;73763;48.936;9.300;2023-12-20T03:44:55;5.00;99.00
83770;DHT22;73763;48.936;9.300;2023-12-20T03:47:20;5.00;99.10
83770;DHT22;73763;48.936;9.300;2023-12-20T03:49:46;5.00;99.10
83770;DHT22;73763;48.936;9.300;2023-12-20T03:52:11;5.00;99.20
83770;DHT22;73763;48.936;9.300;2023-12-20T03:54:37;5.00;99.10
83770;DHT22;73763;48.936;9.300;2023-12-20T03:57:02;5.00;99.00
83770;DHT22;73763;48.936;9.300;2023-12-20T03:59:28;4.90;98.90
83770;DHT22;73763;48.936;9.300;2023-12-20T04:01:54;4.90;99.00
83770;DHT22;73763;48.936;9.300;2023-12-20T04:04:19;4.90;99.00
83770;DHT22;73763;48.936;9.300;2023-12-20T04:06:45;4.90;99.10
83770;DHT22;73763;48.936;9.300;2023-12-20T04:09:10;4.90;99.10
83770;DHT22;73763;48.936;9.300;2023-12-20T04:11:36;4.90;99.00
83770;DHT22;73763;48.936;9.300;2023-12-20T04:14:02;4.90;99.00
83770;DHT22;73763;48.936;9.300;2023-12-20T04:16:27;4.80;98.80
83770;DHT22;73763;48.936;9.300;2023-12-20T04:18:53;4.90;98.90
83770;DHT22;73763;48.936;9.300;2023-12-20T04:21:18;4.80;98.70
83770;DHT22;73763;48.936;9.300;2023-12-20T04:23:44;4.80;98.90
83770;DHT22;73763;48.936;9.300;2023-12-20T04:26:10;4.80;98.80
83770;DHT22;73763;48.936;9.300;2023-12-20T04:28:36;4.80;98.80
83770;DHT22;73763;48.936;9.300;2023-12-20T04:31:01;4.80;98.90
83770;DHT22;73763;48.936;9.300;2023-12-20T04:33:27;4.80;99.00
83770;DHT22;73763;48.936;9.300;2023-12-20T04:35:52;4.80;99.10
83770;DHT22;73763;48.936;9.300;2023-12-20T04:38:18;4.80;99.00
83770;DHT22;73763;48.936;9.300;2023-12-20T04:40:44;4.80;99.00
83770;DHT22;73763;48.936;9.300;2023-12-20T04:43:09;4.70;99.00
83770;DHT22;73763;48.936;9.300;2023-12-20T04:45:35;4.80;99.10
83770;DHT22;73763;48.936;9.300;2023-12-20T04:48:01;4.80;99.30
83770;DHT22;73763;48.936;9.300;2023-12-20T04:50:27;4.80;99.00
83770;DHT22;73763;48.936;9.300;2023-12-20T04:52:52;4.80;99.10
83770;DHT22;73763;48.936;9.300;2023-12-20T04:55:18;4.80;99.10
83770;DHT22;73763;48.936;9.300;2023-12-20T04:57:43;4.80;99.10
83770;DHT22;73763;48.936;9.300;2023-12-20T05:00:09;4.80;99.10
83770;DHT22;73763;48.936;9.300;2023-12-20T05:02:36;4.80;99.10
83770;DHT22;73763;48.936;9.300;2023-12-20T05:05:01;4.80;99.10
83770;DHT22;73763;48.936;9.300;2023-12-20T05:07:27;4.80;99.10
83770;DHT22;73763;48.936;9.300;2023-12-20T05:09:52;4.80;99.10
83770;DHT22;73763;48.936;9.300;2023-12-20T05:12:18;4.80;99.20
83770;DHT22;73763;48.936;9.300;2023-12-20T05:14:43;4.90;99.10
83770;DHT22;73763;48.936;9.300;2023-12-20T05:17:09;4.90;99.10
83770;DHT22;73763;48.936;9.300;2023-12-20T05:19:34;4.90;99.10
83770;DHT22;73763;48.936;9.300;2023-12-20T05:22:01;4.90;99.10
83770;DHT22;73763;48.936;9.300;2023-12-20T05:24:26;4.90;99.10
83770;DHT22;73763;48.936;9.300;2023-12-20T05:26:52;5.00;99.20
83770;DHT22;73763;48.936;9.300;2023-12-20T05:29:17;5.00;99.20
83770;DHT22;73763;48.936;9.300;2023-12-20T05:31:43;4.90;99.30
83770;DHT22;73763;48.936;9.300;2023-12-20T05:34:08;5.00;99.40
83770;DHT22;73763;48.936;9.300;2023-12-20T05:36:34;5.00;99.40
83770;DHT22;73763;48.936;9.300;2023-12-20T05:38:59;5.00;99.50
83770;DHT22;73763;48.936;9.300;2023-12-20T05:41:25;5.00;99.70
83770;DHT22;73763;48.936;9.300;2023-12-20T05:43:50;5.00;99.90
83770;DHT22;73763;48.936;9.300;2023-12-20T05:46:16;5.00;99.90
83770;DHT22;73763;48.936;9.300;2023-12-20T05:48:41;5.00;99.90
83770;DHT22;73763;48.936;9.300;2023-12-20T05:51:07;5.00;99.90
83770;DHT22;73763;48.936;9.300;2023-12-20T05:53:32;5.00;99.90
83770;DHT22;73763;48.936;9.300;2023-12-20T05:55:58;5.00;99.90
83770;DHT22;73763;48.936;9.300;2023-12-20T05:58:23;5.00;99.90
83770;DHT22;73763;48.936;9.300;2023-12-20T06:00:49;5.00;99.90
83770;DHT22;73763;48.936;9.300;2023-12-20T06:03:14;5.00;99.90
83770;DHT22;73763;48.936;9.300;2023-12-20T06:05:40;5.00;99.90
83770;DHT22;73763;48.936;9.300;2023-12-20T06:08:05;5.00;99.90
83770;DHT22;73763;48.936;9.300;2023-12-20T06:10:31;5.00;99.90
83770;DHT22;73763;48.936;9.300;2023-12-20T06:12:56;5.00;99.90
83770;DHT22;73763;48.936;9.300;2023-12-20T06:15:22;5.00;99.90
83770;DHT22;73763;48.936;9.300;2023-12-20T06:17:47;5.00;99.90
83770;DHT22;73763;48.936;9.300;2023-12-20T06:20:13;5.00;99.90
83770;DHT22;73763;48.936;9.300;2023-12-20T06:22:39;5.10;99.90
83770;DHT22;73763;48.936;9.300;2023-12-20T06:25:04;5.10;99.90
83770;DHT22;73763;48.936;9.300;2023-12-20T06:27:30;5.10;99.90
83770;DHT22;73763;48.936;9.300;2023-12-20T06:29:56;5.10;99.90
83770;DHT22;73763;48.936;9.300;2023-12-20T06:32:21;5.10;99.90
83770;DHT22;73763;48.936;9.300;2023-12-20T06:34:47;5.10;99.90
83770;DHT22;73763;48.936;9.300;2023-12-20T06:37:12;5.10;99.90
83770;DHT22;73763;48.936;9.300;2023-12-20T06:39:38;5.10;99.90
83770;DHT22;73763;48.936;9.300;2023-12-20T06:42:03;5.10;99.90
83770;DHT22;73763;48.936;9.300;2023-12-20T06:44:29;5.10;99.90
83770;DHT22;73763;48.936;9.300;2023-12-20T06:46:54;5.10;99.90
83770;DHT22;73763;48.936;9.300;2023-12-20T06:49:20;5.10;99.90
83770;DHT22;73763;48.936;9.300;2023-12-20T06:51:45;5.10;99.90
83770;DHT22;73763;48.936;9.300;2023-12-20T06:54:11;5.10;99.90
83770;DHT22;73763;48.936;9.300;2023-12-20T06:56:36;5.10;99.90
83770;DHT22;73763;48.936;9.300;2023-12-20T06:59:02;5.10;99.90
83770;DHT22;73763;48.936;9.300;2023-12-20T07:01:27;5.10;99.90
83770;DHT22;73763;48.936;9.300;2023-12-20T07:03:53;5.10;99.90
83770;DHT22;73763;48.936;9.300;2023-12-20T07:06:18;5.20;99.90
83770;DHT22;73763;48.936;9.300;2023-12-20T07:08:44;5.20;99.90
83770;DHT22;73763;48.936;9.300;2023-12-20T07:11:09;5.20;99.90
83770;DHT22;73763;48.936;9.300;2023-12-20T07:13:35;5.20;99.90
83770;DHT22;73763;48.936;9.300;2023-12-20T07:16:00;5.20;99.90
83770;DHT22;73763;48.936;9.300;2023-12-20T07:18:26;5.20;99.90
83770;DHT22;73763;48.936;9.300;2023-12-20T07:20:51;5.20;99.90
83770;DHT22;73763;48.936;9.300;2023-12-20T07:23:17;5.20;99.90
83770;DHT22;73763;48.936;9.300;2023-12-20T07:25:42;5.20;99.90
83770;DHT22;73763;48.936;9.300;2023-12-20T07:28:08;5.20;99.90
83770;DHT22;73763;48.936;9.300;2023-12-20T07:30:33;5.30;99.90
83770;DHT22;73763;48.936;9.300;2023-12-20T07:32:59;5.20;99.90
83770;DHT22;73763;48.936;9.300;2023-12-20T07:35:24;5.20;99.90
83770;DHT22;73763;48.936;9.300;2023-12-20T07:37:50;5.20;99.90
83770;DHT22;73763;48.936;9.300;2023-12-20T07:40:15;5.20;99.90
83770;DHT22;73763;48.936;9.300;2023-12-20T07:42:41;5.20;99.90
83770;DHT22;73763;48.936;9.300;2023-12-20T07:45:07;5.20;99.90
83770;DHT22;73763;48.936;9.300;2023-12-20T07:47:32;5.20;99.90
83770;DHT22;73763;48.936;9.300;2023-12-20T07:49:58;5.20;99.90
83770;DHT22;73763;48.936;9.300;2023-12-20T07:52:23;5.20;99.90
83770;DHT22;73763;48.936;9.300;2023-12-20T07:54:49;5.20;99.70
83770;DHT22;73763;48.936;9.300;2023-12-20T07:57:14;5.10;99.30
83770;DHT22;73763;48.936;9.300;2023-12-20T07:59:40;5.10;99.20
83770;DHT22;73763;48.936;9.300;2023-12-20T08:02:06;5.00;99.10
83770;DHT22;73763;48.936;9.300;2023-12-20T08:04:31;4.90;99.10
83770;DHT22;73763;48.936;9.300;2023-12-20T08:06:57;4.90;99.10
83770;DHT22;73763;48.936;9.300;2023-12-20T08:09:22;4.80;99.10
83770;DHT22;73763;48.936;9.300;2023-12-20T08:11:48;4.70;99.10
83770;DHT22;73763;48.936;9.300;2023-12-20T08:14:15;4.70;99.10
83770;DHT22;73763;48.936;9.300;2023-12-20T08:16:41;4.70;99.10
83770;DHT22;73763;48.936;9.300;2023-12-20T08:19:06;4.60;99.00
83770;DHT22;73763;48.936;9.300;2023-12-20T08:21:32;4.60;99.00
83770;DHT22;73763;48.936;9.300;2023-12-20T08:23:57;4.70;99.10
83770;DHT22;73763;48.936;9.300;2023-12-20T08:26:23;5.20;97.70
83770;DHT22;73763;48.936;9.300;2023-12-20T08:28:49;5.80;96.70
83770;DHT22;73763;48.936;9.300;2023-12-20T08:31:15;6.50;94.90
83770;DHT22;73763;48.936;9.300;2023-12-20T08:33:41;7.20;93.00
83770;DHT22;73763;48.936;9.300;2023-12-20T08:36:06;7.80;91.40
83770;DHT22;73763;48.936;9.300;2023-12-20T08:38:32;8.50;88.30
83770;DHT22;73763;48.936;9.300;2023-12-20T08:40:57;8.70;87.50
83770;DHT22;73763;48.936;9.300;2023-12-20T08:43:23;9.20;84.70
83770;DHT22;73763;48.936;9.300;2023-12-20T08:45:48;9.70;82.80
83770;DHT22;73763;48.936;9.300;2023-12-20T08:48:14;9.80;80.60
83770;DHT22;73763;48.936;9.300;2023-12-20T08:50:39;9.70;80.40
83770;DHT22;73763;48.936;9.300;2023-12-20T08:53:05;9.80;81.10
83770;DHT22;73763;48.936;9.300;2023-12-20T08:55:30;9.90;79.30
83770;DHT22;73763;48.936;9.300;2023-12-20T08:57:56;9.90;78.50
83770;DHT22;73763;48.936;9.300;2023-12-20T09:00:21;10.20;78.00
83770;DHT22;73763;48.936;9.300;2023-12-20T09:02:47;10.40;77.10
83770;DHT22;73763;48.936;9.300;2023-12-20T09:05:12;10.30;76.20
83770;DHT22;73763;48.936;9.300;2023-12-20T09:07:38;10.10;75.40
83770;DHT22;73763;48.936;9.300;2023-12-20T09:10:04;9.70;77.80
83770;DHT22;73763;48.936;9.300;2023-12-20T09:12:29;9.50;77.50
83770;DHT22;73763;48.936;9.300;2023-12-20T09:14:55;9.30;78.10
83770;DHT22;73763;48.936;9.300;2023-12-20T09:17:20;9.60;77.60
83770;DHT22;73763;48.936;9.300;2023-12-20T09:19:46;9.80;76.20
83770;DHT22;73763;48.936;9.300;2023-12-20T09:22:12;10.10;74.70
83770;DHT22;73763;48.936;9.300;2023-12-20T09:24:37;9.90;76.80
83770;DHT22;73763;48.936;9.300;2023-12-20T09:27:03;10.30;74.40
83770;DHT22;73763;48.936;9.300;2023-12-20T09:29:29;10.50;72.10
83770;DHT22;73763;48.936;9.300;2023-12-20T09:31:55;10.60;72.70
83770;DHT22;73763;48.936;9.300;2023-12-20T09:34:20;11.10;70.30
83770;DHT22;73763;48.936;9.300;2023-12-20T09:36:46;11.80;69.20
83770;DHT22;73763;48.936;9.300;2023-12-20T09:39:13;11.90;65.40
83770;DHT22;73763;48.936;9.300;2023-12-20T09:41:43;12.00;65.00
83770;DHT22;73763;48.936;9.300;2023-12-20T09:44:14;11.90;65.50
83770;DHT22;73763;48.936;9.300;2023-12-20T09:46:43;11.70;64.60
83770;DHT22;73763;48.936;9.300;2023-12-20T09:49:10;11.60;66.90
83770;DHT22;73763;48.936;9.300;2023-12-20T09:51:36;12.10;65.00
83770;DHT22;73763;48.936;9.300;2023-12-20T09:54:05;12.40;63.30
83770;DHT22;73763;48.936;9.300;2023-12-20T09:56:30;12.80;61.80
83770;DHT22;73763;48.936;9.300;2023-12-20T09:58:56;13.80;59.60
83770;DHT22;73763;48.936;9.300;2023-12-20T10:01:23;14.20;56.30
83770;DHT22;73763;48.936;9.300;2023-12-20T10:03:50;13.60;56.30
83770;DHT22;73763;48.936;9.300;2023-12-20T10:06:16;12.70;58.00
83770;DHT22;73763;48.936;9.300;2023-12-20T10:08:42;11.50;61.20
83770;DHT22;73763;48.936;9.300;2023-12-20T10:11:08;11.00;64.70
83770;DHT22;73763;48.936;9.300;2023-12-20T10:13:34;11.00;64.40
83770;DHT22;73763;48.936;9.300;2023-12-20T10:15:59;10.60;64.20
83770;DHT22;73763;48.936;9.300;2023-12-20T10:18:25;10.40;66.80
83770;DHT22;73763;48.936;9.300;2023-12-20T10:20:50;9.50;69.10
83770;DHT22;73763;48.936;9.300;2023-12-20T10:23:16;9.00;73.50
83770;DHT22;73763;48.936;9.300;2023-12-20T10:25:41;8.90;75.00
83770;DHT22;73763;48.936;9.300;2023-12-20T10:28:15;8.70;73.10
83770;DHT22;73763;48.936;9.300;2023-12-20T10:30:41;8.60;73.10
83770;DHT22;73763;48.936;9.300;2023-12-20T10:33:07;8.20;75.10
83770;DHT22;73763;48.936;9.300;2023-12-20T10:35:34;8.00;75.00
83770;DHT22;73763;48.936;9.300;2023-12-20T10:38:03;7.80;76.20
83770;DHT22;73763;48.936;9.300;2023-12-20T10:40:29;8.90;72.40
83770;DHT22;73763;48.936;9.300;2023-12-20T10:42:55;9.70;69.80
83770;DHT22;73763;48.936;9.300;2023-12-20T10:45:22;9.20;68.70
83770;DHT22;73763;48.936;9.300;2023-12-20T10:47:49;8.40;72.90
83770;DHT22;73763;48.936;9.300;2023-12-20T10:50:16;7.70;75.30
83770;DHT22;73763;48.936;9.300;2023-12-20T10:52:42;7.20;79.10
83770;DHT22;73763;48.936;9.300;2023-12-20T10:55:08;7.00;76.90
83770;DHT22;73763;48.936;9.300;2023-12-20T10:57:36;7.40;76.70
83770;DHT22;73763;48.936;9.300;2023-12-20T11:00:02;8.80;72.20
83770;DHT22;73763;48.936;9.300;2023-12-20T11:02:29;10.40;67.50
83770;DHT22;73763;48.936;9.300;2023-12-20T11:07:50;11.40;60.40
83770;DHT22;73763;48.936;9.300;2023-12-20T11:10:25;10.30;59.80
83770;DHT22;73763;48.936;9.300;2023-12-20T11:12:58;8.90;65.60
83770;DHT22;73763;48.936;9.300;2023-12-20T11:15:26;8.20;69.60
83770;DHT22;73763;48.936;9.300;2023-12-20T11:17:56;7.80;72.70
83770;DHT22;73763;48.936;9.300;2023-12-20T11:20:23;7.60;72.90
83770;DHT22;73763;48.936;9.300;2023-12-20T11:22:53;7.40;73.40
83770;DHT22;73763;48.936;9.300;2023-12-20T11:25:19;7.30;75.00
83770;DHT22;73763;48.936;9.300;2023-12-20T11:28:09;7.20;75.50
83770;DHT22;73763;48.936;9.300;2023-12-20T11:30:54;7.20;75.90
83770;DHT22;73763;48.936;9.300;2023-12-20T11:33:26;6.90;76.30
83770;DHT22;73763;48.936;9.300;2023-12-20T11:35:58;6.80;77.60
83770;DHT22;73763;48.936;9.300;2023-12-20T11:38:24;6.60;78.10
83770;DHT22;73763;48.936;9.300;2023-12-20T11:40:50;6.40;77.70
83770;DHT22;73763;48.936;9.300;2023-12-20T11:43:38;6.30;77.90
83770;DHT22;73763;48.936;9.300;2023-12-20T11:46:08;6.10;79.20
83770;DHT22;73763;48.936;9.300;2023-12-20T11:48:38;6.10;80.80
83770;DHT22;73763;48.936;9.300;2023-12-20T11:51:13;6.00;81.10
83770;DHT22;73763;48.936;9.300;2023-12-20T11:53:42;6.00;81.30
83770;DHT22;73763;48.936;9.300;2023-12-20T11:56:08;6.00;81.10
83770;DHT22;73763;48.936;9.300;2023-12-20T11:58:34;6.00;80.60
83770;DHT22;73763;48.936;9.300;2023-12-20T12:01:00;6.00;80.00
83770;DHT22;73763;48.936;9.300;2023-12-20T12:03:26;6.00;81.30
83770;DHT22;73763;48.936;9.300;2023-12-20T12:05:51;6.00;82.30
83770;DHT22;73763;48.936;9.300;2023-12-20T12:08:17;6.10;82.20
83770;DHT22;73763;48.936;9.300;2023-12-20T12:10:44;6.20;81.40
83770;DHT22;73763;48.936;9.300;2023-12-20T12:13:09;6.30;79.70
83770;DHT22;73763;48.936;9.300;2023-12-20T12:15:36;6.40;79.80
83770;DHT22;73763;48.936;9.300;2023-12-20T12:18:02;6.40;80.00
83770;DHT22;73763;48.936;9.300;2023-12-20T12:20:28;6.50;79.70
83770;DHT22;73763;48.936;9.300;2023-12-20T12:23:04;6.50;79.60
83770;DHT22;73763;48.936;9.300;2023-12-20T12:25:32;6.50;78.30
83770;DHT22;73763;48.936;9.300;2023-12-20T12:27:58;6.60;79.10
83770;DHT22;73763;48.936;9.300;2023-12-20T12:30:24;6.60;79.90
83770;DHT22;73763;48.936;9.300;2023-12-20T12:32:51;6.70;78.60
83770;DHT22;73763;48.936;9.300;2023-12-20T12:35:16;6.70;78.10
83770;DHT22;73763;48.936;9.300;2023-12-20T12:37:42;6.60;79.40
83770;DHT22;73763;48.936;9.300;2023-12-20T12:40:13;6.50;78.80
83770;DHT22;73763;48.936;9.300;2023-12-20T12:42:39;6.50;78.50
83770;DHT22;73763;48.936;9.300;2023-12-20T12:45:06;6.50;80.20
83770;DHT22;73763;48.936;9.300;2023-12-20T12:47:31;6.60;81.20
83770;DHT22;73763;48.936;9.300;2023-12-20T12:49:57;6.60;81.00
83770;DHT22;73763;48.936;9.300;2023-12-20T12:52:23;6.60;80.60
83770;DHT22;73763;48.936;9.300;2023-12-20T12:54:48;6.50;80.10
83770;DHT22;73763;48.936;9.300;2023-12-20T12:57:14;6.40;80.90
83770;DHT22;73763;48.936;9.300;2023-12-20T12:59:40;6.30;81.00
83770;DHT22;73763;48.936;9.300;2023-12-20T13:02:06;6.30;81.50
83770;DHT22;73763;48.936;9.300;2023-12-20T13:04:32;6.20;81.40
83770;DHT22;73763;48.936;9.300;2023-12-20T13:06:57;6.20;82.10
83770;DHT22;73763;48.936;9.300;2023-12-20T13:09:23;6.30;82.50
83770;DHT22;73763;48.936;9.300;2023-12-20T13:11:49;6.30;81.90
83770;DHT22;73763;48.936;9.300;2023-12-20T13:14:14;6.30;81.50
83770;DHT22;73763;48.936;9.300;2023-12-20T13:16:42;6.30;81.80
83770;DHT22;73763;48.936;9.300;2023-12-20T13:19:07;6.30;81.80
83770;DHT22;73763;48.936;9.300;2023-12-20T13:21:33;6.30;81.50
83770;DHT22;73763;48.936;9.300;2023-12-20T13:23:58;6.30;82.50
83770;DHT22;73763;48.936;9.300;2023-12-20T13:26:24;6.30;82.00
83770;DHT22;73763;48.936;9.300;2023-12-20T13:28:50;6.30;81.40
83770;DHT22;73763;48.936;9.300;2023-12-20T13:31:15;6.20;82.50
83770;DHT22;73763;48.936;9.300;2023-12-20T13:33:41;6.20;81.40
83770;DHT22;73763;48.936;9.300;2023-12-20T13:36:06;6.20;82.90
83770;DHT22;73763;48.936;9.300;2023-12-20T13:38:32;6.10;84.10
83770;DHT22;73763;48.936;9.300;2023-12-20T13:40:57;6.10;84.00
83770;DHT22;73763;48.936;9.300;2023-12-20T13:43:23;6.10;83.80
83770;DHT22;73763;48.936;9.300;2023-12-20T13:45:49;6.10;83.30
83770;DHT22;73763;48.936;9.300;2023-12-20T13:48:14;6.00;82.60
83770;DHT22;73763;48.936;9.300;2023-12-20T13:50:40;6.00;83.40
83770;DHT22;73763;48.936;9.300;2023-12-20T13:53:05;5.90;82.80
83770;DHT22;73763;48.936;9.300;2023-12-20T13:55:31;5.80;83.60
83770;DHT22;73763;48.936;9.300;2023-12-20T13:57:56;5.80;83.70
83770;DHT22;73763;48.936;9.300;2023-12-20T14:00:23;5.80;84.30
83770;DHT22;73763;48.936;9.300;2023-12-20T14:02:48;5.70;85.80
83770;DHT22;73763;48.936;9.300;2023-12-20T14:05:14;5.60;87.50
83770;DHT22;73763;48.936;9.300;2023-12-20T14:07:39;5.50;88.50
83770;DHT22;73763;48.936;9.300;2023-12-20T14:10:05;5.40;90.00
83770;DHT22;73763;48.936;9.300;2023-12-20T14:12:31;5.40;90.00
83770;DHT22;73763;48.936;9.300;2023-12-20T14:14:56;5.30;90.40
83770;DHT22;73763;48.936;9.300;2023-12-20T14:17:22;5.30;90.50
83770;DHT22;73763;48.936;9.300;2023-12-20T14:19:48;5.30;90.50
83770;DHT22;73763;48.936;9.300;2023-12-20T14:22:13;5.30;91.30
83770;DHT22;73763;48.936;9.300;2023-12-20T14:24:39;5.20;91.00
83770;DHT22;73763;48.936;9.300;2023-12-20T14:27:04;5.20;90.90
83770;DHT22;73763;48.936;9.300;2023-12-20T14:29:30;5.10;91.40
83770;DHT22;73763;48.936;9.300;2023-12-20T14:31:55;5.10;92.20
83770;DHT22;73763;48.936;9.300;2023-12-20T14:34:21;5.00;92.00
83770;DHT22;73763;48.936;9.300;2023-12-20T14:36:46;5.00;92.60
83770;DHT22;73763;48.936;9.300;2023-12-20T14:39:12;4.90;92.80
83770;DHT22;73763;48.936;9.300;2023-12-20T14:41:37;4.90;93.00
83770;DHT22;73763;48.936;9.300;2023-12-20T14:44:03;4.90;93.10
83770;DHT22;73763;48.936;9.300;2023-12-20T14:46:28;4.80;93.60
83770;DHT22;73763;48.936;9.300;2023-12-20T14:48:54;4.80;93.90
83770;DHT22;73763;48.936;9.300;2023-12-20T14:51:19;4.70;93.80
83770;DHT22;73763;48.936;9.300;2023-12-20T14:53:45;4.70;94.00
83770;DHT22;73763;48.936;9.300;2023-12-20T14:56:10;4.70;93.80
83770;DHT22;73763;48.936;9.300;2023-12-20T14:58:36;4.70;93.60
83770;DHT22;73763;48.936;9.300;2023-12-20T15:01:01;4.70;93.70
83770;DHT22;73763;48.936;9.300;2023-12-20T15:03:27;4.70;94.20
83770;DHT22;73763;48.936;9.300;2023-12-20T15:05:52;4.70;94.10
83770;DHT22;73763;48.936;9.300;2023-12-20T15:08:18;4.60;94.10
83770;DHT22;73763;48.936;9.300;2023-12-20T15:10:43;4.60;94.30
83770;DHT22;73763;48.936;9.300;2023-12-20T15:13:09;4.70;94.20
83770;DHT22;73763;48.936;9.300;2023-12-20T15:15:34;4.70;94.40
83770;DHT22;73763;48.936;9.300;2023-12-20T15:18:00;4.70;94.40
83770;DHT22;73763;48.936;9.300;2023-12-20T15:20:26;4.70;94.20
83770;DHT22;73763;48.936;9.300;2023-12-20T15:22:51;4.70;94.40
83770;DHT22;73763;48.936;9.300;2023-12-20T15:25:18;4.70;94.90
83770;DHT22;73763;48.936;9.300;2023-12-20T15:27:44;4.70;94.50
83770;DHT22;73763;48.936;9.300;2023-12-20T15:30:10;4.70;94.90
83770;DHT22;73763;48.936;9.300;2023-12-20T15:32:36;4.60;94.30
83770;DHT22;73763;48.936;9.300;2023-12-20T15:35:01;4.60;94.80
83770;DHT22;73763;48.936;9.300;2023-12-20T15:37:27;4.60;95.30
83770;DHT22;73763;48.936;9.300;2023-12-20T15:39:52;4.50;95.50